Time;durP1;ratioP1;P1;durP2;ratioP2;P2;SDS_P1;SDS_P2;PMS_P1;PMS_P2;Temp;Humidity;BMP_temperature;BMP_pressure;BME280_temperature;BME280_humidity;BME280_pressure;Samples;Min_cycle;Max_cycle;Signal;HPM_P1;HPM_P2
2021/12/29 00:00:38;;;;;;;8.00;6.82;;;12.10;84.50;;;;;;5023566;28;20113;-47
2021/12/29 00:03:05;;;;;;;9.63;6.70;;;12.10;84.40;;;;;;5026837;28;20099;-50
2021/12/29 00:05:32;;;;;;;8.20;7.25;;;12.10;84.40;;;;;;5016039;28;20037;-50
2021/12/29 00:07:59;;;;;;;7.63;6.82;;;12.10;84.40;;;;;;5009271;28;20053;-45
2021/12/29 00:10:28;;;;;;;8.98;6.70;;;12.10;84.40;;;;;;5005861;28;20445;-47
2021/12/29 00:12:56;;;;;;;9.20;7.18;;;12.20;84.50;;;;;;5027536;28;20038;-46
2021/12/29 00:15:27;;;;;;;11.60;7.68;;;12.10;84.40;;;;;;5010421;28;20409;-45
2021/12/29 00:17:56;;;;;;;9.38;8.02;;;12.20;84.50;;;;;;5014661;28;20037;-44
2021/12/29 00:20:29;;;;;;;9.00;7.50;;;12.10;84.40;;;;;;5020324;28;20083;-49
2021/12/29 00:22:59;;;;;;;11.65;7.75;;;12.10;84.30;;;;;;5010550;28;20099;-44
2021/12/29 00:25:27;;;;;;;9.75;8.27;;;12.10;84.40;;;;;;5007218;28;20493;-45
2021/12/29 00:27:55;;;;;;;11.63;8.32;;;12.20;84.50;;;;;;5018161;28;20633;-46
2021/12/29 00:30:23;;;;;;;10.18;7.45;;;12.10;84.40;;;;;;5020954;28;20545;-47
2021/12/29 00:32:57;;;;;;;11.38;8.45;;;12.20;84.50;;;;;;5029416;28;20049;-45
2021/12/29 00:36:02;;;;;;;10.50;8.32;;;12.10;84.30;;;;;;4963305;28;20539;-45
2021/12/29 00:38:48;;;;;;;12.48;8.07;;;12.20;84.30;;;;;;4968124;28;20620;-46
2021/12/29 00:41:33;;;;;;;11.48;8.48;;;12.10;84.30;;;;;;4998535;28;20064;-48
2021/12/29 00:44:26;;;;;;;;;;;12.20;84.30;;;;;;4990359;28;20049;-50
2021/12/29 00:47:04;;;;;;;8.07;7.22;;;12.20;84.70;;;;;;5002202;28;20318;-49
2021/12/29 00:49:34;;;;;;;9.07;7.00;;;12.20;84.00;;;;;;5022463;28;20378;-49
2021/12/29 00:52:05;;;;;;;9.88;8.13;;;12.10;84.10;;;;;;5029065;28;20037;-47
2021/12/29 00:54:32;;;;;;;10.63;8.65;;;12.20;84.30;;;;;;5013974;28;20064;-46
2021/12/29 00:56:59;;;;;;;9.73;8.05;;;12.10;84.30;;;;;;5013341;28;20054;-49
2021/12/29 00:59:28;;;;;;;8.85;7.70;;;12.10;84.40;;;;;;5014296;28;20034;-50
2021/12/29 01:01:55;;;;;;;7.88;7.05;;;12.10;84.40;;;;;;5016715;28;20460;-49
2021/12/29 01:04:23;;;;;;;8.13;7.03;;;12.10;84.50;;;;;;5014717;28;20048;-50
2021/12/29 01:06:50;;;;;;;9.77;6.90;;;12.10;84.50;;;;;;5023013;28;20095;-49
2021/12/29 01:09:17;;;;;;;10.35;6.93;;;12.10;84.50;;;;;;5010600;28;20506;-49
2021/12/29 01:11:44;;;;;;;8.35;7.10;;;12.10;84.50;;;;;;5006217;28;20096;-46
2021/12/29 01:14:11;;;;;;;9.93;7.57;;;12.10;84.50;;;;;;5009422;28;20046;-47
2021/12/29 01:16:39;;;;;;;10.25;6.78;;;12.10;84.50;;;;;;5023970;28;20609;-48
2021/12/29 01:19:18;;;;;;;8.07;7.28;;;12.10;84.50;;;;;;5003733;28;20042;-48
2021/12/29 01:21:49;;;;;;;10.30;7.00;;;12.10;84.50;;;;;;5012905;28;20037;-49
2021/12/29 01:24:18;;;;;;;8.15;6.30;;;12.10;85.10;;;;;;5017514;28;20100;-50
2021/12/29 01:26:45;;;;;;;8.27;7.30;;;12.10;84.50;;;;;;5015407;28;20104;-50
2021/12/29 01:29:13;;;;;;;8.32;6.65;;;12.10;84.50;;;;;;5009352;28;20049;-47
2021/12/29 01:31:41;;;;;;;7.88;6.90;;;12.10;84.50;;;;;;4984044;28;20088;-45
2021/12/29 01:34:08;;;;;;;9.23;6.85;;;12.10;84.50;;;;;;5011061;28;20054;-45
2021/12/29 01:36:37;;;;;;;8.07;6.95;;;12.10;84.50;;;;;;5020349;28;20088;-49
2021/12/29 01:39:10;;;;;;;10.45;6.85;;;12.10;84.40;;;;;;5028875;28;20038;-50
2021/12/29 01:41:37;;;;;;;7.82;6.72;;;12.20;84.50;;;;;;5004696;28;20049;-47
2021/12/29 01:44:05;;;;;;;9.35;7.40;;;12.10;84.40;;;;;;5015718;28;20095;-47
2021/12/29 01:46:32;;;;;;;7.43;6.60;;;12.10;84.80;;;;;;5003838;28;20046;-46
2021/12/29 01:48:58;;;;;;;8.30;7.40;;;12.10;84.50;;;;;;5014991;28;20149;-46
2021/12/29 01:51:25;;;;;;;8.35;7.35;;;12.10;84.60;;;;;;5014197;28;20079;-49
2021/12/29 01:54:14;;;;;;;8.15;7.30;;;12.10;84.50;;;;;;5020775;28;20091;-47
2021/12/29 01:56:44;;;;;;;8.38;6.70;;;12.10;84.50;;;;;;5028055;28;20045;-49
2021/12/29 01:59:13;;;;;;;10.02;8.65;;;12.10;84.50;;;;;;4999735;28;20117;-45
2021/12/29 02:01:41;;;;;;;8.77;7.85;;;12.10;84.50;;;;;;5022686;28;20628;-48
2021/12/29 02:04:08;;;;;;;10.38;7.75;;;12.10;84.50;;;;;;5007829;28;20501;-47
2021/12/29 02:06:35;;;;;;;9.43;8.23;;;12.10;84.50;;;;;;5020918;28;20041;-49
2021/12/29 02:09:04;;;;;;;10.70;8.38;;;12.10;84.50;;;;;;5012465;28;20124;-47
2021/12/29 02:11:33;;;;;;;9.55;7.93;;;12.10;84.50;;;;;;5007973;28;20369;-49
2021/12/29 02:14:07;;;;;;;9.30;8.30;;;12.10;84.50;;;;;;5006528;28;20083;-48
2021/12/29 02:16:34;;;;;;;9.90;8.38;;;12.10;84.50;;;;;;5015078;28;20417;-49
2021/12/29 02:19:05;;;;;;;9.93;8.43;;;12.10;84.50;;;;;;5012706;28;20427;-44
2021/12/29 02:21:32;;;;;;;10.23;8.30;;;12.10;84.50;;;;;;5012075;28;20104;-48
2021/12/29 02:26:29;;;;;;;9.95;8.60;;;12.10;84.50;;;;;;5018868;28;20045;-48
2021/12/29 02:28:57;;;;;;;10.45;9.07;;;12.10;84.50;;;;;;5020534;28;20037;-48
2021/12/29 02:31:24;;;;;;;11.68;9.15;;;12.10;84.40;;;;;;5023532;28;20535;-49
2021/12/29 02:33:54;;;;;;;11.45;9.82;;;12.10;84.40;;;;;;5027339;28;20045;-48
2021/12/29 02:36:21;;;;;;;11.40;8.60;;;12.00;84.30;;;;;;5009246;28;20584;-48
2021/12/29 02:38:52;;;;;;;9.35;8.38;;;12.10;84.40;;;;;;5022553;28;20049;-50
2021/12/29 02:41:19;;;;;;;9.77;8.48;;;12.00;84.30;;;;;;5023753;28;20049;-48
2021/12/29 02:43:47;;;;;;;10.45;8.55;;;12.10;84.30;;;;;;5031556;28;20515;-49
2021/12/29 02:46:16;;;;;;;12.35;8.85;;;12.00;84.30;;;;;;5020209;28;20564;-49
2021/12/29 02:48:54;;;;;;;12.18;8.88;;;12.10;84.40;;;;;;5023113;28;20464;-46
2021/12/29 02:51:21;;;;;;;10.68;8.73;;;12.00;84.30;;;;;;5030179;28;20413;-47
2021/12/29 02:53:48;;;;;;;10.85;9.50;;;12.10;84.40;;;;;;5012919;28;20038;-48
2021/12/29 02:56:15;;;;;;;10.57;8.93;;;12.00;84.40;;;;;;5007320;28;20379;-49
2021/12/29 02:58:42;;;;;;;11.30;9.00;;;12.10;84.30;;;;;;5019878;28;20041;-48
2021/12/29 03:01:13;;;;;;;11.38;9.90;;;12.00;84.10;;;;;;5028302;28;20069;-48
2021/12/29 03:03:40;;;;;;;13.50;10.18;;;12.00;84.20;;;;;;4998879;28;20445;-48
2021/12/29 03:06:08;;;;;;;11.88;9.98;;;12.00;84.20;;;;;;5017134;28;20033;-49
2021/12/29 03:08:36;;;;;;;13.73;10.05;;;12.10;84.20;;;;;;5018965;28;20099;-48
2021/12/29 03:11:04;;;;;;;12.05;10.38;;;12.10;84.10;;;;;;5011395;28;20034;-48
2021/12/29 03:13:34;;;;;;;10.90;9.40;;;12.00;84.20;;;;;;5008300;28;20041;-48
2021/12/29 03:16:01;;;;;;;12.57;11.10;;;12.00;84.20;;;;;;5022896;28;20045;-49
2021/12/29 03:18:29;;;;;;;14.65;12.02;;;12.00;84.20;;;;;;5026866;22;20072;-86
2021/12/29 03:20:56;;;;;;;16.85;12.48;;;12.00;84.10;;;;;;4987404;28;20054;-82
2021/12/29 03:23:23;;;;;;;14.88;11.80;;;12.00;84.20;;;;;;5007697;28;20049;-78
2021/12/29 03:25:51;;;;;;;16.40;12.57;;;12.20;84.30;;;;;;5012996;28;20056;-78
2021/12/29 03:28:21;;;;;;;16.42;14.00;;;12.00;84.30;;;;;;4992802;28;20045;-79
2021/12/29 03:30:52;;;;;;;19.75;15.50;;;12.00;84.20;;;;;;5000463;28;20038;-79
2021/12/29 03:33:20;;;;;;;15.90;14.23;;;12.00;84.30;;;;;;4989437;28;20468;-78
2021/12/29 03:35:51;;;;;;;15.70;13.65;;;12.00;84.20;;;;;;4982566;28;20035;-83
2021/12/29 03:38:21;;;;;;;18.90;14.65;;;12.00;84.20;;;;;;5025914;28;20042;-79
2021/12/29 03:40:50;;;;;;;20.27;15.55;;;12.00;84.20;;;;;;5012001;28;20414;-81
2021/12/29 03:43:17;;;;;;;16.33;14.55;;;12.10;84.10;;;;;;4986986;28;20468;-79
2021/12/29 03:45:48;;;;;;;17.48;14.15;;;12.00;84.10;;;;;;4988819;28;20060;-82
2021/12/29 03:48:15;;;;;;;15.40;11.82;;;12.00;84.20;;;;;;4985678;28;20050;-80
2021/12/29 03:50:42;;;;;;;15.13;12.23;;;12.00;84.20;;;;;;4990907;28;20512;-81
2021/12/29 03:53:10;;;;;;;12.38;10.73;;;12.10;84.20;;;;;;5001070;28;20050;-81
2021/12/29 03:55:37;;;;;;;13.50;10.80;;;12.00;84.20;;;;;;4986812;28;20413;-83
2021/12/29 03:58:04;;;;;;;13.80;10.60;;;12.00;84.20;;;;;;4994372;28;20046;-82
2021/12/29 04:00:31;;;;;;;13.18;10.13;;;12.00;84.20;;;;;;4996881;28;20045;-78
2021/12/29 04:02:58;;;;;;;12.18;9.13;;;12.00;84.00;;;;;;5024375;28;20065;-78
2021/12/29 04:05:25;;;;;;;12.50;8.85;;;12.00;84.00;;;;;;5000328;28;20053;-78
2021/12/29 04:07:53;;;;;;;11.10;9.65;;;12.00;84.10;;;;;;4989462;28;20049;-79
2021/12/29 04:10:21;;;;;;;15.35;9.60;;;12.00;84.00;;;;;;4991223;28;20116;-81
2021/12/29 04:12:48;;;;;;;12.80;9.45;;;12.00;84.00;;;;;;4991710;28;20045;-81
2021/12/29 04:15:16;;;;;;;12.85;9.88;;;12.00;84.00;;;;;;4998467;28;20042;-81
2021/12/29 04:17:45;;;;;;;12.52;10.20;;;11.90;83.90;;;;;;5010241;28;20046;-83
2021/12/29 04:23:07;;;;;;;13.18;10.80;;;12.00;84.00;;;;;;4997133;28;20299;-80
2021/12/29 04:25:37;;;;;;;13.57;11.57;;;12.00;84.00;;;;;;4992349;28;20050;-78
2021/12/29 04:28:12;;;;;;;19.00;13.80;;;12.00;84.00;;;;;;4983814;28;20046;-82
2021/12/29 04:30:40;;;;;;;18.60;15.27;;;11.90;83.90;;;;;;5011560;28;20459;-81
2021/12/29 04:33:08;;;;;;;18.05;15.15;;;11.90;83.90;;;;;;5001769;28;20049;-84
2021/12/29 04:35:35;;;;;;;15.00;12.52;;;11.90;83.90;;;;;;5011157;28;20042;-78
2021/12/29 04:38:02;;;;;;;14.15;11.52;;;11.90;83.90;;;;;;4979243;28;20045;-80
2021/12/29 04:40:29;;;;;;;14.05;11.25;;;11.90;83.90;;;;;;4988215;28;20045;-78
2021/12/29 04:42:55;;;;;;;13.88;11.43;;;11.90;83.90;;;;;;5011094;28;20401;-78
2021/12/29 04:45:27;;;;;;;15.00;9.48;;;11.90;83.90;;;;;;4993517;28;20072;-75
2021/12/29 04:47:54;;;;;;;14.70;9.82;;;11.90;83.90;;;;;;4964495;28;20038;-75
2021/12/29 04:50:28;;;;;;;15.63;10.85;;;11.90;83.90;;;;;;5007328;28;20046;-74
2021/12/29 04:53:00;;;;;;;12.82;9.63;;;11.90;83.90;;;;;;4989561;28;20052;-78
2021/12/29 04:55:30;;;;;;;15.85;10.35;;;11.90;83.90;;;;;;5003568;28;20034;-78
2021/12/29 04:57:58;;;;;;;12.65;10.18;;;11.90;84.00;;;;;;4989375;28;20034;-73
2021/12/29 05:00:28;;;;;;;11.88;9.48;;;11.90;83.90;;;;;;5001935;28;20056;-74
2021/12/29 05:02:56;;;;;;;14.15;10.07;;;12.10;84.00;;;;;;5006692;28;20379;-79
2021/12/29 05:10:45;;;;;;;12.23;9.38;;;11.90;83.90;;;;;;4990367;28;20046;-74
2021/12/29 05:13:12;;;;;;;14.02;8.45;;;11.90;83.90;;;;;;4987951;28;20493;-74
2021/12/29 05:15:38;;;;;;;12.18;8.50;;;11.90;83.90;;;;;;4990986;28;20046;-80
2021/12/29 05:18:05;;;;;;;14.40;9.05;;;11.90;83.90;;;;;;4989667;28;20509;-76
2021/12/29 05:20:33;;;;;;;13.35;7.30;;;11.90;83.90;;;;;;4989066;28;20046;-77
2021/12/29 05:23:00;;;;;;;11.85;7.88;;;12.00;84.10;;;;;;4989131;28;20045;-76
2021/12/29 05:25:28;;;;;;;9.60;7.93;;;11.90;84.60;;;;;;4984697;28;20042;-76
2021/12/29 05:27:55;;;;;;;12.70;8.60;;;11.90;83.90;;;;;;4986968;28;20058;-76
2021/12/29 05:30:25;;;;;;;13.05;8.75;;;12.00;83.90;;;;;;5005825;28;20042;-78
2021/12/29 05:32:52;;;;;;;11.80;8.75;;;11.90;83.90;;;;;;4988219;28;20046;-79
2021/12/29 05:35:21;;;;;;;9.65;7.75;;;11.90;83.80;;;;;;4987486;28;20482;-74
2021/12/29 05:37:48;;;;;;;13.35;9.57;;;11.90;83.90;;;;;;4989524;28;20394;-74
2021/12/29 05:40:15;;;;;;;14.18;9.35;;;11.80;83.80;;;;;;5008135;28;20085;-76
2021/12/29 05:42:43;;;;;;;14.18;9.60;;;11.90;83.70;;;;;;4989573;28;20045;-74
2021/12/29 05:45:12;;;;;;;10.65;8.48;;;11.80;83.80;;;;;;5011666;28;20052;-76
2021/12/29 05:47:40;;;;;;;11.43;7.47;;;11.90;83.90;;;;;;5001896;28;20049;-78
2021/12/29 05:50:10;;;;;;;12.27;8.38;;;11.80;83.80;;;;;;5029012;28;20053;-74
2021/12/29 05:52:37;;;;;;;10.40;7.70;;;11.90;83.90;;;;;;5011171;28;20044;-74
2021/12/29 05:55:05;;;;;;;11.93;7.43;;;11.80;83.80;;;;;;5001651;28;20038;-79
2021/12/29 05:57:33;;;;;;;11.18;7.70;;;11.80;83.80;;;;;;4994811;28;20418;-75
2021/12/29 06:00:00;;;;;;;11.38;8.35;;;11.80;83.80;;;;;;4993468;28;20046;-75
2021/12/29 06:02:27;;;;;;;12.10;7.65;;;11.80;83.80;;;;;;4975838;28;20042;-75
2021/12/29 06:04:54;;;;;;;11.52;7.25;;;11.80;83.80;;;;;;5014495;28;20040;-76
2021/12/29 06:07:20;;;;;;;9.18;7.00;;;11.80;83.70;;;;;;5000401;28;20576;-78
2021/12/29 06:09:47;;;;;;;8.75;7.35;;;11.80;83.80;;;;;;5011093;28;20052;-76
2021/12/29 06:12:14;;;;;;;9.90;7.45;;;11.80;83.80;;;;;;4985491;28;20040;-78
2021/12/29 06:14:44;;;;;;;10.02;7.57;;;11.80;83.80;;;;;;5004177;28;20041;-77
2021/12/29 06:17:11;;;;;;;9.82;7.75;;;11.80;83.80;;;;;;4996061;28;20410;-80
2021/12/29 06:19:40;;;;;;;13.52;7.35;;;11.80;83.80;;;;;;4987850;28;20093;-76
2021/12/29 06:22:10;;;;;;;10.25;7.00;;;11.80;83.80;;;;;;4987020;28;20049;-79
2021/12/29 06:24:38;;;;;;;10.57;6.63;;;11.80;83.80;;;;;;5010634;28;20041;-76
2021/12/29 06:27:06;;;;;;;9.68;7.13;;;11.80;83.80;;;;;;5012831;28;20052;-79
2021/12/29 06:29:33;;;;;;;9.63;7.38;;;11.80;83.80;;;;;;4996945;28;20049;-79
2021/12/29 06:32:00;;;;;;;11.18;7.32;;;11.80;83.90;;;;;;4997979;28;20037;-76
2021/12/29 06:34:27;;;;;;;11.10;7.57;;;11.80;83.80;;;;;;5021484;28;20157;-79
2021/12/29 06:36:55;;;;;;;9.63;7.43;;;11.80;83.80;;;;;;5029913;28;20049;-77
2021/12/29 06:39:22;;;;;;;9.55;7.07;;;12.00;83.90;;;;;;5021597;28;20070;-76
2021/12/29 06:41:49;;;;;;;9.73;7.47;;;11.90;83.90;;;;;;4991633;28;20125;-79
2021/12/29 06:44:16;;;;;;;11.65;8.40;;;11.80;83.90;;;;;;4977641;28;20520;-76
2021/12/29 06:46:43;;;;;;;8.10;7.18;;;11.80;83.80;;;;;;4992436;28;20393;-76
2021/12/29 06:49:09;;;;;;;10.40;7.18;;;11.80;83.80;;;;;;4988438;28;20050;-78
2021/12/29 06:51:36;;;;;;;11.57;8.35;;;11.80;83.80;;;;;;4991033;28;20514;-76
2021/12/29 06:54:03;;;;;;;11.82;8.20;;;11.90;83.80;;;;;;5023245;28;20041;-78
2021/12/29 06:56:30;;;;;;;11.70;7.78;;;11.90;83.70;;;;;;5012378;28;20037;-78
2021/12/29 06:58:57;;;;;;;12.52;7.57;;;11.90;83.70;;;;;;4996316;28;20042;-76
2021/12/29 07:01:24;;;;;;;10.70;7.35;;;11.90;83.80;;;;;;5011609;28;20068;-78
2021/12/29 07:03:51;;;;;;;12.98;8.55;;;11.90;83.70;;;;;;5030694;28;20552;-75
2021/12/29 07:06:18;;;;;;;12.65;7.78;;;11.90;83.70;;;;;;5011459;28;20049;-74
2021/12/29 07:08:45;;;;;;;12.65;8.32;;;11.90;83.60;;;;;;4998937;28;20052;-77
2021/12/29 07:11:12;;;;;;;11.48;7.00;;;11.90;83.70;;;;;;5020776;28;20528;-75
2021/12/29 07:13:39;;;;;;;10.93;6.68;;;11.90;83.70;;;;;;4975813;28;20053;-74
2021/12/29 07:16:06;;;;;;;8.88;6.32;;;11.90;83.70;;;;;;4985968;28;20053;-78
2021/12/29 07:18:33;;;;;;;8.50;6.63;;;11.90;83.80;;;;;;5011351;28;20033;-76
2021/12/29 07:21:00;;;;;;;10.38;6.82;;;11.90;83.70;;;;;;4991248;28;20046;-80
2021/12/29 07:23:27;;;;;;;11.95;7.95;;;11.90;83.60;;;;;;4991483;28;20398;-75
2021/12/29 07:25:54;;;;;;;8.82;6.30;;;11.90;83.60;;;;;;4992353;28;20092;-78
2021/12/29 07:28:21;;;;;;;8.65;5.97;;;11.90;83.60;;;;;;4983647;28;20053;-79
2021/12/29 07:30:48;;;;;;;9.15;6.80;;;11.90;83.50;;;;;;4983491;28;20037;-79
2021/12/29 07:33:15;;;;;;;8.10;6.28;;;11.90;83.40;;;;;;4971360;28;20038;-77
2021/12/29 07:35:41;;;;;;;8.38;7.10;;;11.90;83.40;;;;;;4979551;28;20559;-76
2021/12/29 07:38:08;;;;;;;11.82;6.07;;;11.90;83.40;;;;;;4990323;28;20133;-76
2021/12/29 07:40:35;;;;;;;11.07;6.80;;;11.90;83.30;;;;;;5013305;28;20038;-79
2021/12/29 07:43:03;;;;;;;9.50;6.43;;;11.90;83.40;;;;;;5012212;28;20697;-79
2021/12/29 07:45:31;;;;;;;9.13;6.25;;;11.90;83.30;;;;;;4975331;28;20045;-82
2021/12/29 07:47:58;;;;;;;8.38;6.85;;;11.90;83.20;;;;;;4954678;28;20588;-81
2021/12/29 07:50:25;;;;;;;11.73;6.30;;;11.90;83.20;;;;;;4983762;28;20049;-77
2021/12/29 07:52:58;;;;;;;10.45;6.10;;;11.90;83.20;;;;;;4967300;28;20465;-76
2021/12/29 07:55:25;;;;;;;6.53;5.60;;;11.90;83.20;;;;;;4983217;28;20041;-76
2021/12/29 07:57:52;;;;;;;7.18;5.90;;;11.90;83.10;;;;;;4997334;28;20121;-76
2021/12/29 08:00:19;;;;;;;9.02;5.70;;;11.90;83.20;;;;;;4991984;28;20406;-81
2021/12/29 08:02:47;;;;;;;8.13;5.85;;;11.90;83.20;;;;;;4982675;28;20116;-76
2021/12/29 08:05:15;;;;;;;8.00;6.22;;;11.90;83.20;;;;;;4988204;28;20053;-78
2021/12/29 08:07:46;;;;;;;9.75;5.30;;;11.90;83.20;;;;;;4976811;28;20046;-76
2021/12/29 08:10:13;;;;;;;9.57;6.00;;;11.80;83.20;;;;;;4988439;28;20046;-78
2021/12/29 08:12:40;;;;;;;6.18;4.97;;;11.80;83.20;;;;;;4997021;28;20047;-76
2021/12/29 08:15:08;;;;;;;7.30;5.70;;;11.90;83.20;;;;;;5004215;28;20050;-79
2021/12/29 08:17:36;;;;;;;9.55;6.15;;;11.90;83.20;;;;;;4995114;28;20030;-76
2021/12/29 08:20:05;;;;;;;7.22;5.68;;;11.90;83.20;;;;;;4975374;28;20481;-76
2021/12/29 08:22:32;;;;;;;6.72;5.45;;;11.90;83.20;;;;;;4997801;28;20034;-78
2021/12/29 08:24:59;;;;;;;8.65;5.53;;;11.90;83.30;;;;;;4989265;28;20042;-77
2021/12/29 08:27:26;;;;;;;7.22;5.30;;;11.90;83.20;;;;;;4979926;28;20409;-77
2021/12/29 08:29:53;;;;;;;8.35;5.43;;;11.90;83.20;;;;;;5003051;28;20045;-77
2021/12/29 08:32:20;;;;;;;6.38;4.97;;;11.90;83.20;;;;;;4976824;28;20053;-76
2021/12/29 08:34:47;;;;;;;7.90;5.43;;;11.90;83.90;;;;;;5006615;28;20128;-80
2021/12/29 08:37:16;;;;;;;7.40;5.75;;;11.90;83.20;;;;;;4991345;28;20026;-78
2021/12/29 08:39:43;;;;;;;7.70;5.85;;;11.90;83.40;;;;;;4987728;28;20037;-76
2021/12/29 08:42:11;;;;;;;6.35;5.40;;;11.90;83.30;;;;;;4980383;28;20038;-76
2021/12/29 08:44:42;;;;;;;10.27;6.00;;;11.90;83.30;;;;;;5007886;28;20042;-82
2021/12/29 08:47:09;;;;;;;9.55;5.65;;;11.90;83.30;;;;;;4994145;28;20534;-78
2021/12/29 08:49:36;;;;;;;8.90;5.28;;;11.90;83.10;;;;;;4959716;28;20038;-76
2021/12/29 08:52:03;;;;;;;6.35;4.88;;;11.90;83.10;;;;;;4974445;28;20065;-78
2021/12/29 08:54:30;;;;;;;6.28;4.78;;;11.90;83.30;;;;;;4975372;28;20413;-79
2021/12/29 08:56:57;;;;;;;6.13;5.28;;;12.00;83.30;;;;;;4996530;28;20069;-80
2021/12/29 08:59:24;;;;;;;7.53;5.25;;;12.00;83.20;;;;;;5001007;28;20100;-77
2021/12/29 09:01:51;;;;;;;6.43;5.45;;;12.00;83.10;;;;;;4975954;28;20042;-79
2021/12/29 09:04:18;;;;;;;7.75;5.63;;;12.00;83.10;;;;;;4980289;28;20046;-76
2021/12/29 09:06:46;;;;;;;7.18;5.63;;;12.00;83.00;;;;;;4975844;28;20068;-80
2021/12/29 09:09:13;;;;;;;5.43;4.90;;;12.10;83.10;;;;;;4987584;28;20053;-76
2021/12/29 09:11:40;;;;;;;9.15;5.57;;;12.00;83.10;;;;;;4970117;28;20046;-80
2021/12/29 09:14:07;;;;;;;7.55;5.13;;;12.00;83.40;;;;;;4971602;28;20052;-75
2021/12/29 09:16:34;;;;;;;9.85;5.45;;;12.00;83.10;;;;;;4976598;28;20045;-78
2021/12/29 09:22:19;;;;;;;8.50;5.88;;;12.10;83.00;;;;;;4979678;28;20038;-77
2021/12/29 09:24:46;;;;;;;9.52;6.10;;;12.10;83.10;;;;;;5002531;28;20545;-79
2021/12/29 09:27:15;;;;;;;10.30;6.80;;;12.20;83.20;;;;;;4973591;28;20045;-77
2021/12/29 09:29:43;;;;;;;8.23;5.78;;;12.10;83.00;;;;;;4989286;28;20052;-78
2021/12/29 09:32:10;;;;;;;8.15;6.45;;;12.30;83.20;;;;;;4984184;28;20040;-77
2021/12/29 09:34:37;;;;;;;6.32;5.72;;;12.10;83.20;;;;;;4973358;28;20045;-76
2021/12/29 09:37:05;;;;;;;10.18;6.00;;;12.20;83.20;;;;;;4963095;28;20057;-77
2021/12/29 09:39:32;;;;;;;11.27;6.00;;;12.20;83.00;;;;;;4993433;28;20033;-80
2021/12/29 09:41:59;;;;;;;8.85;6.00;;;12.20;83.00;;;;;;4999692;28;20061;-76
2021/12/29 09:44:26;;;;;;;12.43;6.75;;;12.20;83.10;;;;;;5011721;28;20038;-76
2021/12/29 09:46:54;;;;;;;10.77;6.78;;;12.20;83.10;;;;;;4963174;28;20046;-76
2021/12/29 09:49:22;;;;;;;9.73;5.70;;;12.20;83.10;;;;;;4992335;28;20089;-79
2021/12/29 09:51:51;;;;;;;9.45;5.55;;;12.20;83.20;;;;;;4989207;28;20546;-77
2021/12/29 09:54:18;;;;;;;8.15;5.60;;;12.30;83.30;;;;;;4991014;28;20039;-78
2021/12/29 09:56:45;;;;;;;6.40;5.10;;;12.30;83.60;;;;;;4974729;28;20405;-78
2021/12/29 09:59:12;;;;;;;9.38;5.50;;;12.30;83.70;;;;;;5000451;28;20042;-74
2021/12/29 10:01:39;;;;;;;8.55;5.60;;;12.30;83.90;;;;;;5001086;28;20042;-76
2021/12/29 10:04:06;;;;;;;6.13;5.00;;;12.40;84.00;;;;;;5005874;28;20045;-76
2021/12/29 10:06:33;;;;;;;9.35;5.88;;;12.50;84.20;;;;;;4989370;28;20045;-75
2021/12/29 10:09:10;;;;;;;6.20;5.32;;;12.50;84.20;;;;;;4989693;28;20048;-77
2021/12/29 10:11:37;;;;;;;7.53;5.05;;;12.60;84.00;;;;;;4999174;28;20033;-75
2021/12/29 10:14:11;;;;;;;12.52;6.43;;;12.60;84.00;;;;;;4972001;28;20050;-77
2021/12/29 10:16:38;;;;;;;9.30;5.80;;;12.60;83.70;;;;;;4985631;28;20038;-78
2021/12/29 10:19:09;;;;;;;6.80;4.75;;;12.70;83.60;;;;;;5012259;28;20445;-75
2021/12/29 10:21:41;;;;;;;7.75;5.68;;;12.70;83.60;;;;;;4970570;28;20042;-75
2021/12/29 10:24:08;;;;;;;8.30;5.47;;;12.70;83.60;;;;;;4990512;28;20049;-75
2021/12/29 10:26:39;;;;;;;7.93;5.55;;;12.80;83.60;;;;;;4975150;28;20046;-75
2021/12/29 10:29:10;;;;;;;8.93;4.50;;;12.80;83.40;;;;;;4988140;28;20229;-75
2021/12/29 10:31:44;;;;;;;9.18;5.15;;;12.90;83.30;;;;;;4993586;28;20045;-77
2021/12/29 10:34:23;;;;;;;6.72;4.90;;;13.00;83.30;;;;;;4985963;28;20065;-75
2021/12/29 10:36:56;;;;;;;8.10;4.50;;;12.90;82.90;;;;;;4973125;28;20046;-75
2021/12/29 10:39:33;;;;;;;11.50;4.93;;;13.00;82.60;;;;;;4991960;28;20045;-75
2021/12/29 10:42:14;;;;;;;6.90;4.70;;;13.00;82.50;;;;;;4977784;28;20112;-74
2021/12/29 10:45:00;;;;;;;10.02;4.97;;;12.90;82.40;;;;;;4992165;28;20045;-74
2021/12/29 10:47:38;;;;;;;10.20;6.00;;;13.00;82.20;;;;;;5009152;28;20072;-75
2021/12/29 10:50:07;;;;;;;8.43;4.30;;;13.00;82.20;;;;;;5008459;28;20038;-75
2021/12/29 10:52:36;;;;;;;7.60;4.35;;;13.00;82.40;;;;;;4988268;28;20046;-76
2021/12/29 10:55:07;;;;;;;7.90;4.25;;;13.00;82.40;;;;;;5002768;28;20071;-77
2021/12/29 10:57:34;;;;;;;6.03;3.92;;;13.00;82.30;;;;;;5002963;28;20065;-74
2021/12/29 11:00:03;;;;;;;7.60;3.70;;;13.00;82.30;;;;;;4987486;28;20047;-74
2021/12/29 11:02:33;;;;;;;6.07;3.70;;;13.00;82.50;;;;;;4985891;28;20038;-74
2021/12/29 11:05:09;;;;;;;4.43;3.20;;;13.00;82.40;;;;;;4998588;28;20521;-74
2021/12/29 11:07:38;;;;;;;6.47;3.40;;;13.10;82.50;;;;;;4996394;28;20042;-74
2021/12/29 11:10:10;;;;;;;7.10;3.20;;;13.10;82.40;;;;;;4972731;28;20112;-74
2021/12/29 11:13:03;;;;;;;4.30;3.30;;;13.10;82.20;;;;;;4970929;28;20052;-74
2021/12/29 11:15:37;;;;;;;7.75;3.28;;;13.10;82.40;;;;;;5009992;28;20520;-77
2021/12/29 11:18:08;;;;;;;8.95;3.38;;;13.10;82.00;;;;;;4977861;28;20046;-76
2021/12/29 11:20:36;;;;;;;6.45;3.45;;;13.10;82.20;;;;;;5002411;28;20052;-77
2021/12/29 11:23:20;;;;;;;9.48;3.78;;;13.10;82.30;;;;;;4992791;28;20042;-75
2021/12/29 11:25:50;;;;;;;6.90;3.50;;;13.20;82.20;;;;;;4999187;28;20042;-75
2021/12/29 11:28:24;;;;;;;5.05;3.22;;;13.20;82.40;;;;;;5009240;28;20041;-75
2021/12/29 11:30:52;;;;;;;6.65;3.63;;;13.30;82.20;;;;;;4986379;28;20472;-75
2021/12/29 11:33:22;;;;;;;8.18;3.63;;;13.30;82.00;;;;;;4992616;28;20038;-75
2021/12/29 11:35:53;;;;;;;8.52;3.45;;;13.30;81.90;;;;;;4990058;28;20108;-75
2021/12/29 11:38:22;;;;;;;7.47;3.38;;;13.30;81.60;;;;;;5005419;28;20129;-78
2021/12/29 11:41:00;;;;;;;5.35;3.03;;;13.30;81.20;;;;;;4975992;28;20049;-74
2021/12/29 11:43:28;;;;;;;4.05;2.70;;;13.30;81.10;;;;;;4992104;28;20494;-75
2021/12/29 11:45:56;;;;;;;5.25;3.03;;;13.30;81.40;;;;;;4974143;28;20045;-74
2021/12/29 11:48:26;;;;;;;5.97;3.03;;;13.30;81.40;;;;;;4977329;28;20101;-77
2021/12/29 11:50:57;;;;;;;6.28;2.97;;;13.40;81.20;;;;;;4989777;28;20038;-76
2021/12/29 11:53:36;;;;;;;6.00;3.20;;;13.40;81.00;;;;;;4938160;28;20049;-76
2021/12/29 11:56:06;;;;;;;5.90;3.03;;;13.30;80.60;;;;;;4961832;28;20066;-75
2021/12/29 11:58:34;;;;;;;4.22;2.53;;;13.30;80.90;;;;;;4965833;28;20073;-76
2021/12/29 12:01:06;;;;;;;7.80;2.63;;;13.30;80.90;;;;;;4987078;28;20050;-73
2021/12/29 12:03:59;;;;;;;3.88;2.22;;;13.20;80.40;;;;;;4976905;28;20030;-76
2021/12/29 12:06:29;;;;;;;;;;;13.30;80.20;;;;;;4980589;28;20084;-73
2021/12/29 12:09:14;;;;;;;3.97;1.85;;;13.30;80.90;;;;;;4988756;28;19926;-75
2021/12/29 12:12:02;;;;;;;3.58;2.45;;;13.30;80.70;;;;;;5005973;28;20117;-73
2021/12/29 12:14:34;;;;;;;7.68;2.58;;;13.30;80.90;;;;;;4994436;28;20041;-73
2021/12/29 12:17:09;;;;;;;3.78;2.05;;;13.30;81.20;;;;;;4994264;28;20043;-73
2021/12/29 12:19:35;;;;;;;4.63;2.40;;;13.30;81.10;;;;;;4970555;28;20038;-73
2021/12/29 12:22:13;;;;;;;6.30;2.60;;;13.20;80.90;;;;;;4976367;28;20037;-73
2021/12/29 12:25:04;;;;;;;5.30;2.33;;;13.20;81.10;;;;;;4996052;28;20494;-75
2021/12/29 12:27:50;;;;;;;6.50;3.25;;;13.30;81.10;;;;;;4975566;28;20060;-75
2021/12/29 12:30:21;;;;;;;4.18;2.65;;;13.30;80.90;;;;;;4982015;28;20038;-74
2021/12/29 12:32:51;;;;;;;4.97;2.83;;;13.30;80.80;;;;;;4979563;28;20426;-73
2021/12/29 12:35:28;;;;;;;4.90;2.40;;;13.30;80.80;;;;;;4987400;28;20046;-76
2021/12/29 12:37:55;;;;;;;5.93;2.83;;;13.30;80.50;;;;;;4953606;28;20050;-74
2021/12/29 12:40:31;;;;;;;5.85;2.25;;;13.30;80.80;;;;;;4983516;28;20064;-75
2021/12/29 12:43:11;;;;;;;4.07;2.17;;;13.30;80.40;;;;;;5010286;28;20091;-74
2021/12/29 12:45:42;;;;;;;6.65;2.50;;;13.30;80.40;;;;;;4993113;28;20038;-74
2021/12/29 12:48:22;;;;;;;5.87;2.07;;;13.30;80.20;;;;;;4988405;28;20156;-75
2021/12/29 12:50:50;;;;;;;4.90;3.00;;;13.30;80.50;;;;;;5004944;28;20289;-75
2021/12/29 12:53:31;;;;;;;3.10;1.90;;;13.30;80.40;;;;;;4978945;28;20060;-75
2021/12/29 12:55:59;;;;;;;3.83;2.40;;;13.30;80.00;;;;;;4996088;28;20038;-74
2021/12/29 12:58:37;;;;;;;4.95;1.73;;;13.30;80.30;;;;;;4957965;28;20049;-73
2021/12/29 13:01:13;;;;;;;3.75;2.13;;;13.30;80.20;;;;;;5000909;28;20041;-73
2021/12/29 13:03:40;;;;;;;2.65;1.75;;;13.40;80.40;;;;;;4973001;28;20091;-73
2021/12/29 13:06:16;;;;;;;4.28;2.00;;;13.30;80.30;;;;;;4979587;28;20064;-72
2021/12/29 13:08:46;;;;;;;4.05;1.90;;;13.30;80.00;;;;;;4988398;28;20034;-75